sensor_id;sensor_type;location;lat;lon;timestamp;temperature;humidity
67157;SHT31;54086;50.126;8.710;2024-02-21T00:01:40;8.40;92.26
67157;SHT31;54086;50.126;8.710;2024-02-21T00:04:05;8.29;93.11
67157;SHT31;54086;50.126;8.710;2024-02-21T00:06:32;8.26;93.41
67157;SHT31;54086;50.126;8.710;2024-02-21T00:08:58;8.32;93.45
67157;SHT31;54086;50.126;8.710;2024-02-21T00:11:23;8.36;93.62
67157;SHT31;54086;50.126;8.710;2024-02-21T00:13:49;8.34;93.57
67157;SHT31;54086;50.126;8.710;2024-02-21T00:16:16;8.16;94.29
67157;SHT31;54086;50.126;8.710;2024-02-21T00:18:41;8.22;94.12
67157;SHT31;54086;50.126;8.710;2024-02-21T00:21:07;8.22;94.53
67157;SHT31;54086;50.126;8.710;2024-02-21T00:23:33;8.25;94.53
67157;SHT31;54086;50.126;8.710;2024-02-21T00:26:00;8.16;94.77
67157;SHT31;54086;50.126;8.710;2024-02-21T00:28:25;8.13;94.75
67157;SHT31;54086;50.126;8.710;2024-02-21T00:30:51;8.10;94.94
67157;SHT31;54086;50.126;8.710;2024-02-21T00:33:18;8.16;95.03
67157;SHT31;54086;50.126;8.710;2024-02-21T00:35:44;8.09;95.03
67157;SHT31;54086;50.126;8.710;2024-02-21T00:38:13;8.05;95.07
67157;SHT31;54086;50.126;8.710;2024-02-21T00:40:38;8.10;95.24
67157;SHT31;54086;50.126;8.710;2024-02-21T00:43:03;8.13;95.30
67157;SHT31;54086;50.126;8.710;2024-02-21T00:45:29;8.12;95.11
67157;SHT31;54086;50.126;8.710;2024-02-21T00:47:54;8.03;95.13
67157;SHT31;54086;50.126;8.710;2024-02-21T00:50:19;8.03;95.33
67157;SHT31;54086;50.126;8.710;2024-02-21T00:52:45;8.06;95.45
67157;SHT31;54086;50.126;8.710;2024-02-21T00:55:10;8.02;95.48
67157;SHT31;54086;50.126;8.710;2024-02-21T00:57:36;7.99;95.58
67157;SHT31;54086;50.126;8.710;2024-02-21T01:00:03;7.98;95.49
67157;SHT31;54086;50.126;8.710;2024-02-21T01:02:28;8.09;95.36
67157;SHT31;54086;50.126;8.710;2024-02-21T01:04:56;8.13;95.37
67157;SHT31;54086;50.126;8.710;2024-02-21T01:07:22;8.17;95.33
67157;SHT31;54086;50.126;8.710;2024-02-21T01:09:47;8.25;95.28
67157;SHT31;54086;50.126;8.710;2024-02-21T01:12:13;8.20;95.04
67157;SHT31;54086;50.126;8.710;2024-02-21T01:14:38;8.13;95.00
67157;SHT31;54086;50.126;8.710;2024-02-21T01:17:03;8.20;94.91
67157;SHT31;54086;50.126;8.710;2024-02-21T01:19:31;8.23;94.92
67157;SHT31;54086;50.126;8.710;2024-02-21T01:21:56;8.25;95.09
67157;SHT31;54086;50.126;8.710;2024-02-21T01:24:22;8.26;95.12
67157;SHT31;54086;50.126;8.710;2024-02-21T01:26:47;8.33;94.89
67157;SHT31;54086;50.126;8.710;2024-02-21T01:29:12;8.34;94.56
67157;SHT31;54086;50.126;8.710;2024-02-21T01:31:38;8.25;94.70
67157;SHT31;54086;50.126;8.710;2024-02-21T01:34:03;8.23;94.73
67157;SHT31;54086;50.126;8.710;2024-02-21T01:36:28;8.25;94.93
67157;SHT31;54086;50.126;8.710;2024-02-21T01:38:54;8.33;94.61
67157;SHT31;54086;50.126;8.710;2024-02-21T01:41:19;8.30;94.65
67157;SHT31;54086;50.126;8.710;2024-02-21T01:43:44;8.22;94.85
67157;SHT31;54086;50.126;8.710;2024-02-21T01:46:11;8.13;94.89
67157;SHT31;54086;50.126;8.710;2024-02-21T01:48:37;8.06;94.96
67157;SHT31;54086;50.126;8.710;2024-02-21T01:51:04;8.07;95.02
67157;SHT31;54086;50.126;8.710;2024-02-21T01:53:32;8.05;95.00
67157;SHT31;54086;50.126;8.710;2024-02-21T01:56:00;8.05;95.05
67157;SHT31;54086;50.126;8.710;2024-02-21T01:58:28;8.05;95.12
67157;SHT31;54086;50.126;8.710;2024-02-21T02:00:56;7.98;95.32
67157;SHT31;54086;50.126;8.710;2024-02-21T02:03:22;7.95;95.42
67157;SHT31;54086;50.126;8.710;2024-02-21T02:05:49;7.98;95.37
67157;SHT31;54086;50.126;8.710;2024-02-21T02:08:16;8.02;95.37
67157;SHT31;54086;50.126;8.710;2024-02-21T02:10:42;7.99;95.15
67157;SHT31;54086;50.126;8.710;2024-02-21T02:13:08;7.99;95.10
67157;SHT31;54086;50.126;8.710;2024-02-21T02:15:42;7.99;95.13
67157;SHT31;54086;50.126;8.710;2024-02-21T02:18:08;7.93;95.27
67157;SHT31;54086;50.126;8.710;2024-02-21T02:20:34;7.89;95.14
67157;SHT31;54086;50.126;8.710;2024-02-21T02:23:10;7.91;95.31
67157;SHT31;54086;50.126;8.710;2024-02-21T02:25:37;7.95;95.29
67157;SHT31;54086;50.126;8.710;2024-02-21T02:28:05;7.89;95.13
67157;SHT31;54086;50.126;8.710;2024-02-21T02:30:34;7.88;95.30
67157;SHT31;54086;50.126;8.710;2024-02-21T02:33:02;7.88;95.42
67157;SHT31;54086;50.126;8.710;2024-02-21T02:35:27;7.86;95.10
67157;SHT31;54086;50.126;8.710;2024-02-21T02:37:52;7.85;95.20
67157;SHT31;54086;50.126;8.710;2024-02-21T02:40:18;7.88;95.09
67157;SHT31;54086;50.126;8.710;2024-02-21T02:42:44;7.86;94.96
67157;SHT31;54086;50.126;8.710;2024-02-21T02:45:09;7.85;94.99
67157;SHT31;54086;50.126;8.710;2024-02-21T02:47:35;7.85;95.00
67157;SHT31;54086;50.126;8.710;2024-02-21T02:50:01;7.86;95.05
67157;SHT31;54086;50.126;8.710;2024-02-21T02:52:26;7.83;94.94
67157;SHT31;54086;50.126;8.710;2024-02-21T02:54:52;7.86;94.80
67157;SHT31;54086;50.126;8.710;2024-02-21T02:57:20;7.91;94.80
67157;SHT31;54086;50.126;8.710;2024-02-21T02:59:50;7.83;94.78
67157;SHT31;54086;50.126;8.710;2024-02-21T03:02:16;7.93;94.83
67157;SHT31;54086;50.126;8.710;2024-02-21T03:04:42;7.92;94.73
67157;SHT31;54086;50.126;8.710;2024-02-21T03:07:08;7.89;94.80
67157;SHT31;54086;50.126;8.710;2024-02-21T03:09:33;7.91;94.76
67157;SHT31;54086;50.126;8.710;2024-02-21T03:11:59;7.91;94.68
67157;SHT31;54086;50.126;8.710;2024-02-21T03:14:30;7.89;94.65
67157;SHT31;54086;50.126;8.710;2024-02-21T03:16:56;7.81;94.76
67157;SHT31;54086;50.126;8.710;2024-02-21T03:19:22;7.79;94.90
67157;SHT31;54086;50.126;8.710;2024-02-21T03:21:48;7.82;95.06
67157;SHT31;54086;50.126;8.710;2024-02-21T03:24:15;7.77;95.07
67157;SHT31;54086;50.126;8.710;2024-02-21T03:26:40;7.78;95.28
67157;SHT31;54086;50.126;8.710;2024-02-21T03:29:06;7.74;95.50
67157;SHT31;54086;50.126;8.710;2024-02-21T03:31:31;7.78;95.60
67157;SHT31;54086;50.126;8.710;2024-02-21T03:33:56;7.72;95.68
67157;SHT31;54086;50.126;8.710;2024-02-21T03:36:22;7.67;95.95
67157;SHT31;54086;50.126;8.710;2024-02-21T03:38:47;7.67;96.07
67157;SHT31;54086;50.126;8.710;2024-02-21T03:41:13;7.71;96.03
67157;SHT31;54086;50.126;8.710;2024-02-21T03:43:38;7.75;96.00
67157;SHT31;54086;50.126;8.710;2024-02-21T03:46:04;7.81;95.80
67157;SHT31;54086;50.126;8.710;2024-02-21T03:48:29;7.79;95.59
67157;SHT31;54086;50.126;8.710;2024-02-21T03:50:55;7.85;95.65
67157;SHT31;54086;50.126;8.710;2024-02-21T03:53:20;7.93;95.48
67157;SHT31;54086;50.126;8.710;2024-02-21T03:55:45;7.95;95.20
67157;SHT31;54086;50.126;8.710;2024-02-21T03:58:11;7.96;95.01
67157;SHT31;54086;50.126;8.710;2024-02-21T04:00:36;7.99;94.89
67157;SHT31;54086;50.126;8.710;2024-02-21T04:03:02;8.02;94.97
67157;SHT31;54086;50.126;8.710;2024-02-21T04:05:28;7.98;94.88
67157;SHT31;54086;50.126;8.710;2024-02-21T04:07:53;7.92;94.83
67157;SHT31;54086;50.126;8.710;2024-02-21T04:10:19;7.89;94.99
67157;SHT31;54086;50.126;8.710;2024-02-21T04:12:44;7.83;94.97
67157;SHT31;54086;50.126;8.710;2024-02-21T04:15:09;7.74;95.21
67157;SHT31;54086;50.126;8.710;2024-02-21T04:17:36;7.78;94.98
67157;SHT31;54086;50.126;8.710;2024-02-21T04:20:05;7.78;95.11
67157;SHT31;54086;50.126;8.710;2024-02-21T04:22:31;7.75;95.14
67157;SHT31;54086;50.126;8.710;2024-02-21T04:24:59;7.88;95.05
67157;SHT31;54086;50.126;8.710;2024-02-21T04:27:24;7.82;94.99
67157;SHT31;54086;50.126;8.710;2024-02-21T04:29:50;7.74;95.06
67157;SHT31;54086;50.126;8.710;2024-02-21T04:32:15;7.74;95.22
67157;SHT31;54086;50.126;8.710;2024-02-21T04:34:41;7.77;95.09
67157;SHT31;54086;50.126;8.710;2024-02-21T04:37:06;7.74;94.91
67157;SHT31;54086;50.126;8.710;2024-02-21T04:39:32;7.79;94.92
67157;SHT31;54086;50.126;8.710;2024-02-21T04:41:57;7.74;94.65
67157;SHT31;54086;50.126;8.710;2024-02-21T04:44:22;7.81;94.77
67157;SHT31;54086;50.126;8.710;2024-02-21T04:46:48;7.77;94.62
67157;SHT31;54086;50.126;8.710;2024-02-21T04:49:13;7.82;94.66
67157;SHT31;54086;50.126;8.710;2024-02-21T04:51:40;7.72;94.72
67157;SHT31;54086;50.126;8.710;2024-02-21T04:54:06;7.67;94.84
67157;SHT31;54086;50.126;8.710;2024-02-21T04:56:31;7.62;94.96
67157;SHT31;54086;50.126;8.710;2024-02-21T04:58:57;7.61;95.00
67157;SHT31;54086;50.126;8.710;2024-02-21T05:01:22;7.60;94.83
67157;SHT31;54086;50.126;8.710;2024-02-21T05:03:47;7.51;94.99
67157;SHT31;54086;50.126;8.710;2024-02-21T05:06:13;7.51;95.10
67157;SHT31;54086;50.126;8.710;2024-02-21T05:08:40;7.48;94.98
67157;SHT31;54086;50.126;8.710;2024-02-21T05:11:05;7.43;95.01
67157;SHT31;54086;50.126;8.710;2024-02-21T05:13:31;7.44;95.01
67157;SHT31;54086;50.126;8.710;2024-02-21T05:15:56;7.48;94.88
67157;SHT31;54086;50.126;8.710;2024-02-21T05:18:21;7.54;94.80
67157;SHT31;54086;50.126;8.710;2024-02-21T05:20:47;7.58;94.59
67157;SHT31;54086;50.126;8.710;2024-02-21T05:23:12;7.61;94.72
67157;SHT31;54086;50.126;8.710;2024-02-21T05:25:37;7.64;94.71
67157;SHT31;54086;50.126;8.710;2024-02-21T05:28:03;7.61;94.56
67157;SHT31;54086;50.126;8.710;2024-02-21T05:30:31;7.57;94.58
67157;SHT31;54086;50.126;8.710;2024-02-21T05:32:56;7.50;94.81
67157;SHT31;54086;50.126;8.710;2024-02-21T05:35:28;7.52;94.87
67157;SHT31;54086;50.126;8.710;2024-02-21T05:37:54;7.47;94.98
67157;SHT31;54086;50.126;8.710;2024-02-21T05:40:19;7.44;95.00
67157;SHT31;54086;50.126;8.710;2024-02-21T05:42:45;7.47;94.95
67157;SHT31;54086;50.126;8.710;2024-02-21T05:45:10;7.46;94.99
67157;SHT31;54086;50.126;8.710;2024-02-21T05:47:35;7.43;95.11
67157;SHT31;54086;50.126;8.710;2024-02-21T05:50:01;7.44;95.05
67157;SHT31;54086;50.126;8.710;2024-02-21T05:52:26;7.43;94.99
67157;SHT31;54086;50.126;8.710;2024-02-21T05:54:51;7.46;95.19
67157;SHT31;54086;50.126;8.710;2024-02-21T05:57:17;7.40;95.04
67157;SHT31;54086;50.126;8.710;2024-02-21T05:59:43;7.47;94.94
67157;SHT31;54086;50.126;8.710;2024-02-21T06:02:09;7.50;94.83
67157;SHT31;54086;50.126;8.710;2024-02-21T06:04:35;7.38;95.12
67157;SHT31;54086;50.126;8.710;2024-02-21T06:07:01;7.43;95.08
67157;SHT31;54086;50.126;8.710;2024-02-21T06:09:27;7.40;95.17
67157;SHT31;54086;50.126;8.710;2024-02-21T06:11:52;7.38;94.99
67157;SHT31;54086;50.126;8.710;2024-02-21T06:14:18;7.35;95.05
67157;SHT31;54086;50.126;8.710;2024-02-21T06:16:44;7.28;95.33
67157;SHT31;54086;50.126;8.710;2024-02-21T06:19:09;7.23;95.53
67157;SHT31;54086;50.126;8.710;2024-02-21T06:21:34;7.23;95.47
67157;SHT31;54086;50.126;8.710;2024-02-21T06:24:00;7.19;95.24
67157;SHT31;54086;50.126;8.710;2024-02-21T06:26:25;7.21;95.05
67157;SHT31;54086;50.126;8.710;2024-02-21T06:28:51;7.27;94.66
67157;SHT31;54086;50.126;8.710;2024-02-21T06:31:16;7.24;94.85
67157;SHT31;54086;50.126;8.710;2024-02-21T06:33:43;7.24;95.02
67157;SHT31;54086;50.126;8.710;2024-02-21T06:36:08;7.17;95.27
67157;SHT31;54086;50.126;8.710;2024-02-21T06:38:33;7.19;95.28
67157;SHT31;54086;50.126;8.710;2024-02-21T06:40:59;7.16;95.46
67157;SHT31;54086;50.126;8.710;2024-02-21T06:43:25;7.17;95.36
67157;SHT31;54086;50.126;8.710;2024-02-21T06:45:51;7.17;95.33
67157;SHT31;54086;50.126;8.710;2024-02-21T06:48:17;7.16;95.26
67157;SHT31;54086;50.126;8.710;2024-02-21T06:50:43;7.19;95.05
67157;SHT31;54086;50.126;8.710;2024-02-21T06:53:09;7.30;94.83
67157;SHT31;54086;50.126;8.710;2024-02-21T06:55:35;7.28;94.76
67157;SHT31;54086;50.126;8.710;2024-02-21T06:58:00;7.30;94.57
67157;SHT31;54086;50.126;8.710;2024-02-21T07:00:28;7.32;94.58
67157;SHT31;54086;50.126;8.710;2024-02-21T07:02:53;7.40;94.29
67157;SHT31;54086;50.126;8.710;2024-02-21T07:05:19;7.51;93.78
67157;SHT31;54086;50.126;8.710;2024-02-21T07:07:46;7.54;93.42
67157;SHT31;54086;50.126;8.710;2024-02-21T07:10:11;7.60;93.26
67157;SHT31;54086;50.126;8.710;2024-02-21T07:12:37;7.64;93.28
67157;SHT31;54086;50.126;8.710;2024-02-21T07:15:07;7.62;93.33
67157;SHT31;54086;50.126;8.710;2024-02-21T07:17:32;7.57;93.59
67157;SHT31;54086;50.126;8.710;2024-02-21T07:19:58;7.60;93.74
67157;SHT31;54086;50.126;8.710;2024-02-21T07:22:24;7.67;93.52
67157;SHT31;54086;50.126;8.710;2024-02-21T07:24:50;7.67;93.32
67157;SHT31;54086;50.126;8.710;2024-02-21T07:27:15;7.68;93.26
67157;SHT31;54086;50.126;8.710;2024-02-21T07:29:43;8.00;92.70
67157;SHT31;54086;50.126;8.710;2024-02-21T07:32:12;8.23;92.00
67157;SHT31;54086;50.126;8.710;2024-02-21T07:34:38;8.46;91.12
67157;SHT31;54086;50.126;8.710;2024-02-21T07:37:04;8.61;90.83
67157;SHT31;54086;50.126;8.710;2024-02-21T07:39:30;8.68;90.56
67157;SHT31;54086;50.126;8.710;2024-02-21T07:41:56;8.71;90.45
67157;SHT31;54086;50.126;8.710;2024-02-21T07:44:21;8.80;90.54
67157;SHT31;54086;50.126;8.710;2024-02-21T07:46:46;8.64;90.39
67157;SHT31;54086;50.126;8.710;2024-02-21T07:49:12;8.85;90.34
67157;SHT31;54086;50.126;8.710;2024-02-21T07:51:38;8.92;89.70
67157;SHT31;54086;50.126;8.710;2024-02-21T07:54:03;8.92;89.93
67157;SHT31;54086;50.126;8.710;2024-02-21T07:56:29;9.02;89.41
67157;SHT31;54086;50.126;8.710;2024-02-21T07:58:55;9.30;88.63
67157;SHT31;54086;50.126;8.710;2024-02-21T08:01:21;9.43;88.02
67157;SHT31;54086;50.126;8.710;2024-02-21T08:03:46;9.42;88.02
67157;SHT31;54086;50.126;8.710;2024-02-21T08:06:13;9.44;87.29
67157;SHT31;54086;50.126;8.710;2024-02-21T08:08:39;9.30;87.28
67157;SHT31;54086;50.126;8.710;2024-02-21T08:11:04;9.30;87.64
67157;SHT31;54086;50.126;8.710;2024-02-21T08:13:30;9.19;88.12
67157;SHT31;54086;50.126;8.710;2024-02-21T08:15:55;9.05;88.33
67157;SHT31;54086;50.126;8.710;2024-02-21T08:18:22;8.88;89.05
67157;SHT31;54086;50.126;8.710;2024-02-21T08:20:47;8.81;89.43
67157;SHT31;54086;50.126;8.710;2024-02-21T08:23:15;8.71;89.60
67157;SHT31;54086;50.126;8.710;2024-02-21T08:25:41;8.75;89.41
67157;SHT31;54086;50.126;8.710;2024-02-21T08:28:06;8.53;89.98
67157;SHT31;54086;50.126;8.710;2024-02-21T08:30:32;8.53;90.17
67157;SHT31;54086;50.126;8.710;2024-02-21T08:32:58;8.60;89.79
67157;SHT31;54086;50.126;8.710;2024-02-21T08:35:23;8.72;89.71
67157;SHT31;54086;50.126;8.710;2024-02-21T08:37:49;8.70;89.11
67157;SHT31;54086;50.126;8.710;2024-02-21T08:40:15;8.68;89.30
67157;SHT31;54086;50.126;8.710;2024-02-21T08:42:44;8.47;89.60
67157;SHT31;54086;50.126;8.710;2024-02-21T08:45:10;8.40;89.85
67157;SHT31;54086;50.126;8.710;2024-02-21T08:47:35;8.51;89.96
67157;SHT31;54086;50.126;8.710;2024-02-21T08:50:02;8.56;89.82
67157;SHT31;54086;50.126;8.710;2024-02-21T08:52:27;8.61;89.91
67157;SHT31;54086;50.126;8.710;2024-02-21T08:54:53;8.67;89.50
67157;SHT31;54086;50.126;8.710;2024-02-21T08:57:20;8.78;89.34
67157;SHT31;54086;50.126;8.710;2024-02-21T08:59:47;8.85;89.11
67157;SHT31;54086;50.126;8.710;2024-02-21T09:02:14;8.85;88.69
67157;SHT31;54086;50.126;8.710;2024-02-21T09:04:42;8.80;88.65
67157;SHT31;54086;50.126;8.710;2024-02-21T09:07:09;8.72;88.66
67157;SHT31;54086;50.126;8.710;2024-02-21T09:09:34;8.61;88.91
67157;SHT31;54086;50.126;8.710;2024-02-21T09:12:00;8.53;89.18
67157;SHT31;54086;50.126;8.710;2024-02-21T09:14:32;8.47;89.06
67157;SHT31;54086;50.126;8.710;2024-02-21T09:16:57;8.49;89.22
67157;SHT31;54086;50.126;8.710;2024-02-21T09:19:22;8.53;88.99
67157;SHT31;54086;50.126;8.710;2024-02-21T09:21:48;8.51;88.66
67157;SHT31;54086;50.126;8.710;2024-02-21T09:24:14;8.59;88.44
67157;SHT31;54086;50.126;8.710;2024-02-21T09:26:41;8.50;88.29
67157;SHT31;54086;50.126;8.710;2024-02-21T09:29:06;8.59;88.27
67157;SHT31;54086;50.126;8.710;2024-02-21T09:31:32;8.63;88.22
67157;SHT31;54086;50.126;8.710;2024-02-21T09:33:57;8.61;88.52
67157;SHT31;54086;50.126;8.710;2024-02-21T09:36:22;8.61;88.54
67157;SHT31;54086;50.126;8.710;2024-02-21T09:38:48;8.59;88.17
67157;SHT31;54086;50.126;8.710;2024-02-21T09:41:18;8.64;87.98
67157;SHT31;54086;50.126;8.710;2024-02-21T09:43:47;8.63;87.69
67157;SHT31;54086;50.126;8.710;2024-02-21T09:46:19;8.56;87.92
67157;SHT31;54086;50.126;8.710;2024-02-21T09:51:44;8.71;87.91
67157;SHT31;54086;50.126;8.710;2024-02-21T09:54:12;8.88;87.39
67157;SHT31;54086;50.126;8.710;2024-02-21T09:56:37;9.07;87.50
67157;SHT31;54086;50.126;8.710;2024-02-21T09:59:03;9.30;86.75
67157;SHT31;54086;50.126;8.710;2024-02-21T10:01:33;9.22;86.85
67157;SHT31;54086;50.126;8.710;2024-02-21T10:03:59;9.11;87.10
67157;SHT31;54086;50.126;8.710;2024-02-21T10:06:24;9.23;87.16
67157;SHT31;54086;50.126;8.710;2024-02-21T10:08:53;9.07;87.04
67157;SHT31;54086;50.126;8.710;2024-02-21T10:11:25;9.19;86.16
67157;SHT31;54086;50.126;8.710;2024-02-21T10:14:02;9.36;85.36
67157;SHT31;54086;50.126;8.710;2024-02-21T10:16:29;9.36;85.69
67157;SHT31;54086;50.126;8.710;2024-02-21T10:18:55;9.51;85.20
67157;SHT31;54086;50.126;8.710;2024-02-21T10:21:20;9.54;84.80
67157;SHT31;54086;50.126;8.710;2024-02-21T10:23:50;9.44;84.83
67157;SHT31;54086;50.126;8.710;2024-02-21T10:26:18;9.66;84.60
67157;SHT31;54086;50.126;8.710;2024-02-21T10:28:44;9.67;84.59
67157;SHT31;54086;50.126;8.710;2024-02-21T10:31:11;9.60;84.77
67157;SHT31;54086;50.126;8.710;2024-02-21T10:33:37;9.56;84.55
67157;SHT31;54086;50.126;8.710;2024-02-21T10:36:10;9.53;84.73
67157;SHT31;54086;50.126;8.710;2024-02-21T10:38:39;9.49;84.69
67157;SHT31;54086;50.126;8.710;2024-02-21T10:41:05;9.35;84.88
67157;SHT31;54086;50.126;8.710;2024-02-21T10:43:38;9.20;85.70
67157;SHT31;54086;50.126;8.710;2024-02-21T10:46:08;9.32;85.80
67157;SHT31;54086;50.126;8.710;2024-02-21T10:48:43;9.39;85.55
67157;SHT31;54086;50.126;8.710;2024-02-21T10:51:18;9.69;84.94
67157;SHT31;54086;50.126;8.710;2024-02-21T10:56:32;9.54;84.59
67157;SHT31;54086;50.126;8.710;2024-02-21T10:59:02;9.57;84.78
67157;SHT31;54086;50.126;8.710;2024-02-21T11:01:30;9.64;85.09
67157;SHT31;54086;50.126;8.710;2024-02-21T11:04:05;9.86;84.56
67157;SHT31;54086;50.126;8.710;2024-02-21T11:06:33;9.69;85.18
67157;SHT31;54086;50.126;8.710;2024-02-21T11:09:07;9.81;84.84
67157;SHT31;54086;50.126;8.710;2024-02-21T11:11:43;10.10;84.10
67157;SHT31;54086;50.126;8.710;2024-02-21T11:14:18;9.95;84.31
67157;SHT31;54086;50.126;8.710;2024-02-21T11:16:44;10.11;84.10
67157;SHT31;54086;50.126;8.710;2024-02-21T11:21:43;10.08;84.21
67157;SHT31;54086;50.126;8.710;2024-02-21T11:24:09;10.02;84.13
67157;SHT31;54086;50.126;8.710;2024-02-21T11:26:37;10.10;84.23
67157;SHT31;54086;50.126;8.710;2024-02-21T11:29:02;10.18;84.27
67157;SHT31;54086;50.126;8.710;2024-02-21T11:31:45;10.37;83.71
67157;SHT31;54086;50.126;8.710;2024-02-21T11:34:13;10.42;83.44
67157;SHT31;54086;50.126;8.710;2024-02-21T11:36:52;10.21;84.16
67157;SHT31;54086;50.126;8.710;2024-02-21T11:39:27;10.24;83.49
67157;SHT31;54086;50.126;8.710;2024-02-21T11:42:06;10.50;82.84
67157;SHT31;54086;50.126;8.710;2024-02-21T11:44:35;10.44;83.50
67157;SHT31;54086;50.126;8.710;2024-02-21T11:47:00;10.24;84.04
67157;SHT31;54086;50.126;8.710;2024-02-21T11:49:28;10.19;84.01
67157;SHT31;54086;50.126;8.710;2024-02-21T11:51:58;10.58;83.16
67157;SHT31;54086;50.126;8.710;2024-02-21T11:54:24;10.75;82.62
67157;SHT31;54086;50.126;8.710;2024-02-21T11:56:49;10.44;83.25
67157;SHT31;54086;50.126;8.710;2024-02-21T11:59:15;10.41;83.36
67157;SHT31;54086;50.126;8.710;2024-02-21T12:01:40;10.52;83.21
67157;SHT31;54086;50.126;8.710;2024-02-21T12:04:06;10.27;83.70
67157;SHT31;54086;50.126;8.710;2024-02-21T12:06:32;10.10;84.74
67157;SHT31;54086;50.126;8.710;2024-02-21T12:08:58;10.15;84.48
67157;SHT31;54086;50.126;8.710;2024-02-21T12:11:23;10.18;84.46
67157;SHT31;54086;50.126;8.710;2024-02-21T12:14:09;10.34;83.88
67157;SHT31;54086;50.126;8.710;2024-02-21T12:16:35;10.48;83.71
67157;SHT31;54086;50.126;8.710;2024-02-21T12:19:04;10.41;83.56
67157;SHT31;54086;50.126;8.710;2024-02-21T12:21:30;10.49;83.36
67157;SHT31;54086;50.126;8.710;2024-02-21T12:23:58;10.50;83.40
67157;SHT31;54086;50.126;8.710;2024-02-21T12:26:24;10.56;83.54
67157;SHT31;54086;50.126;8.710;2024-02-21T12:28:50;10.69;83.26
67157;SHT31;54086;50.126;8.710;2024-02-21T12:31:16;10.69;83.18
67157;SHT31;54086;50.126;8.710;2024-02-21T12:33:42;10.48;83.41
67157;SHT31;54086;50.126;8.710;2024-02-21T12:36:08;10.56;83.84
67157;SHT31;54086;50.126;8.710;2024-02-21T12:38:36;10.65;83.22
67157;SHT31;54086;50.126;8.710;2024-02-21T12:41:02;10.72;82.95
67157;SHT31;54086;50.126;8.710;2024-02-21T12:43:28;10.84;82.66
67157;SHT31;54086;50.126;8.710;2024-02-21T12:45:54;10.80;82.30
67157;SHT31;54086;50.126;8.710;2024-02-21T12:48:19;10.70;82.54
67157;SHT31;54086;50.126;8.710;2024-02-21T12:50:49;10.72;82.15
67157;SHT31;54086;50.126;8.710;2024-02-21T12:53:19;10.84;81.69
67157;SHT31;54086;50.126;8.710;2024-02-21T12:55:47;11.11;81.03
67157;SHT31;54086;50.126;8.710;2024-02-21T12:58:14;11.09;81.20
67157;SHT31;54086;50.126;8.710;2024-02-21T13:00:40;11.01;81.32
67157;SHT31;54086;50.126;8.710;2024-02-21T13:03:05;11.13;81.22
67157;SHT31;54086;50.126;8.710;2024-02-21T13:05:31;11.14;81.23
67157;SHT31;54086;50.126;8.710;2024-02-21T13:07:58;11.04;81.32
67157;SHT31;54086;50.126;8.710;2024-02-21T13:10:24;10.90;81.65
67157;SHT31;54086;50.126;8.710;2024-02-21T13:12:49;10.86;81.77
67157;SHT31;54086;50.126;8.710;2024-02-21T13:15:15;10.93;81.93
67157;SHT31;54086;50.126;8.710;2024-02-21T13:17:43;10.83;82.29
67157;SHT31;54086;50.126;8.710;2024-02-21T13:20:10;10.76;82.22
67157;SHT31;54086;50.126;8.710;2024-02-21T13:22:36;10.75;82.19
67157;SHT31;54086;50.126;8.710;2024-02-21T13:25:01;10.70;82.35
67157;SHT31;54086;50.126;8.710;2024-02-21T13:27:27;10.62;82.25
67157;SHT31;54086;50.126;8.710;2024-02-21T13:29:52;10.63;82.32
67157;SHT31;54086;50.126;8.710;2024-02-21T13:32:18;10.76;81.97
67157;SHT31;54086;50.126;8.710;2024-02-21T13:34:44;10.81;82.03
67157;SHT31;54086;50.126;8.710;2024-02-21T13:37:09;10.86;82.20
67157;SHT31;54086;50.126;8.710;2024-02-21T13:39:35;10.66;82.45
67157;SHT31;54086;50.126;8.710;2024-02-21T13:42:01;10.60;82.58
67157;SHT31;54086;50.126;8.710;2024-02-21T13:44:27;10.68;82.82
67157;SHT31;54086;50.126;8.710;2024-02-21T13:46:53;10.62;82.62
67157;SHT31;54086;50.126;8.710;2024-02-21T13:49:19;10.70;82.70
67157;SHT31;54086;50.126;8.710;2024-02-21T13:51:44;10.84;82.35
67157;SHT31;54086;50.126;8.710;2024-02-21T13:54:10;10.92;82.10
67157;SHT31;54086;50.126;8.710;2024-02-21T13:56:37;10.96;81.95
67157;SHT31;54086;50.126;8.710;2024-02-21T13:59:02;10.81;81.54
67157;SHT31;54086;50.126;8.710;2024-02-21T14:01:29;10.90;81.55
67157;SHT31;54086;50.126;8.710;2024-02-21T14:03:54;11.13;80.90
67157;SHT31;54086;50.126;8.710;2024-02-21T14:06:20;11.21;80.66
67157;SHT31;54086;50.126;8.710;2024-02-21T14:08:45;10.96;81.06
67157;SHT31;54086;50.126;8.710;2024-02-21T14:11:11;11.00;81.25
67157;SHT31;54086;50.126;8.710;2024-02-21T14:13:36;10.95;81.23
67157;SHT31;54086;50.126;8.710;2024-02-21T14:16:02;10.92;81.49
67157;SHT31;54086;50.126;8.710;2024-02-21T14:18:28;11.03;81.50
67157;SHT31;54086;50.126;8.710;2024-02-21T14:20:53;10.96;81.31
67157;SHT31;54086;50.126;8.710;2024-02-21T14:23:19;10.95;81.23
67157;SHT31;54086;50.126;8.710;2024-02-21T14:25:44;11.00;81.19
67157;SHT31;54086;50.126;8.710;2024-02-21T14:28:10;11.04;81.00
67157;SHT31;54086;50.126;8.710;2024-02-21T14:30:35;11.07;81.00
67157;SHT31;54086;50.126;8.710;2024-02-21T14:33:01;11.04;81.03
67157;SHT31;54086;50.126;8.710;2024-02-21T14:35:26;10.97;81.08
67157;SHT31;54086;50.126;8.710;2024-02-21T14:37:52;10.90;81.47
67157;SHT31;54086;50.126;8.710;2024-02-21T14:40:22;10.92;81.34
67157;SHT31;54086;50.126;8.710;2024-02-21T14:42:48;11.01;81.22
67157;SHT31;54086;50.126;8.710;2024-02-21T14:45:13;11.11;81.20
67157;SHT31;54086;50.126;8.710;2024-02-21T14:47:39;11.11;80.76
67157;SHT31;54086;50.126;8.710;2024-02-21T14:50:05;11.04;81.06
67157;SHT31;54086;50.126;8.710;2024-02-21T14:52:31;10.93;81.32
67157;SHT31;54086;50.126;8.710;2024-02-21T14:54:58;10.95;81.35
67157;SHT31;54086;50.126;8.710;2024-02-21T14:57:23;10.96;81.60
67157;SHT31;54086;50.126;8.710;2024-02-21T14:59:50;10.89;81.54
67157;SHT31;54086;50.126;8.710;2024-02-21T15:02:22;10.95;81.27
67157;SHT31;54086;50.126;8.710;2024-02-21T15:04:48;10.95;81.48
67157;SHT31;54086;50.126;8.710;2024-02-21T15:07:13;10.96;81.45
67157;SHT31;54086;50.126;8.710;2024-02-21T15:09:39;11.03;81.18
67157;SHT31;54086;50.126;8.710;2024-02-21T15:12:05;11.01;80.99
67157;SHT31;54086;50.126;8.710;2024-02-21T15:14:31;11.01;80.92
67157;SHT31;54086;50.126;8.710;2024-02-21T15:16:57;11.00;80.96
67157;SHT31;54086;50.126;8.710;2024-02-21T15:19:22;10.99;80.86
67157;SHT31;54086;50.126;8.710;2024-02-21T15:21:48;10.97;81.04
67157;SHT31;54086;50.126;8.710;2024-02-21T15:24:13;11.01;81.07
67157;SHT31;54086;50.126;8.710;2024-02-21T15:26:39;10.92;81.05
67157;SHT31;54086;50.126;8.710;2024-02-21T15:29:04;10.89;80.78
67157;SHT31;54086;50.126;8.710;2024-02-21T15:31:30;10.87;80.85
67157;SHT31;54086;50.126;8.710;2024-02-21T15:33:55;10.87;80.85
67157;SHT31;54086;50.126;8.710;2024-02-21T15:36:21;10.92;80.94
67157;SHT31;54086;50.126;8.710;2024-02-21T15:38:46;10.84;81.09
67157;SHT31;54086;50.126;8.710;2024-02-21T15:41:12;10.80;81.12
67157;SHT31;54086;50.126;8.710;2024-02-21T15:43:39;10.73;81.28
67157;SHT31;54086;50.126;8.710;2024-02-21T15:46:05;10.79;81.32